sensor_id;sensor_type;location;lat;lon;timestamp;P1;durP1;ratioP1;P2;durP2;ratioP2
5912;SDS011;2982;42.684;23.356;2023-05-10T00:01:50;6.40;;;5.80;;
5912;SDS011;2982;42.684;23.356;2023-05-10T00:04:15;6.50;;;6.10;;
5912;SDS011;2982;42.684;23.356;2023-05-10T00:06:41;6.05;;;5.65;;
5912;SDS011;2982;42.684;23.356;2023-05-10T00:09:06;7.35;;;6.75;;
5912;SDS011;2982;42.684;23.356;2023-05-10T00:11:31;7.00;;;6.50;;
5912;SDS011;2982;42.684;23.356;2023-05-10T00:13:56;7.70;;;7.10;;
5912;SDS011;2982;42.684;23.356;2023-05-10T00:16:22;7.20;;;6.70;;
5912;SDS011;2982;42.684;23.356;2023-05-10T00:18:47;8.38;;;7.65;;
5912;SDS011;2982;42.684;23.356;2023-05-10T00:21:12;7.78;;;7.18;;
5912;SDS011;2982;42.684;23.356;2023-05-10T00:23:38;8.90;;;8.20;;
5912;SDS011;2982;42.684;23.356;2023-05-10T00:26:03;8.35;;;7.65;;
5912;SDS011;2982;42.684;23.356;2023-05-10T00:28:28;8.48;;;7.40;;
5912;SDS011;2982;42.684;23.356;2023-05-10T00:30:54;12.52;;;8.60;;
5912;SDS011;2982;42.684;23.356;2023-05-10T00:33:19;8.73;;;8.10;;
5912;SDS011;2982;42.684;23.356;2023-05-10T00:35:44;8.88;;;8.18;;
5912;SDS011;2982;42.684;23.356;2023-05-10T00:38:09;8.68;;;8.02;;
5912;SDS011;2982;42.684;23.356;2023-05-10T00:40:35;7.93;;;7.43;;
5912;SDS011;2982;42.684;23.356;2023-05-10T00:43:01;8.93;;;7.80;;
5912;SDS011;2982;42.684;23.356;2023-05-10T00:45:26;9.70;;;8.70;;
5912;SDS011;2982;42.684;23.356;2023-05-10T00:47:52;8.35;;;7.63;;
5912;SDS011;2982;42.684;23.356;2023-05-10T00:50:17;9.52;;;8.73;;
5912;SDS011;2982;42.684;23.356;2023-05-10T00:52:43;9.00;;;8.30;;
5912;SDS011;2982;42.684;23.356;2023-05-10T00:55:09;10.20;;;9.45;;
5912;SDS011;2982;42.684;23.356;2023-05-10T00:57:36;9.77;;;8.93;;
5912;SDS011;2982;42.684;23.356;2023-05-10T01:00:02;9.75;;;8.93;;
5912;SDS011;2982;42.684;23.356;2023-05-10T01:02:28;9.98;;;9.18;;
5912;SDS011;2982;42.684;23.356;2023-05-10T01:04:53;9.32;;;8.63;;
5912;SDS011;2982;42.684;23.356;2023-05-10T01:07:19;9.35;;;8.65;;
5912;SDS011;2982;42.684;23.356;2023-05-10T01:09:45;9.70;;;9.07;;
5912;SDS011;2982;42.684;23.356;2023-05-10T01:12:10;8.03;;;7.43;;
5912;SDS011;2982;42.684;23.356;2023-05-10T01:14:36;10.40;;;9.50;;
5912;SDS011;2982;42.684;23.356;2023-05-10T01:17:02;9.52;;;8.82;;
5912;SDS011;2982;42.684;23.356;2023-05-10T01:19:29;9.40;;;8.70;;
5912;SDS011;2982;42.684;23.356;2023-05-10T01:36:13;8.45;;;7.85;;
5912;SDS011;2982;42.684;23.356;2023-05-10T01:38:51;7.90;;;7.40;;
5912;SDS011;2982;42.684;23.356;2023-05-10T01:41:42;7.73;;;7.23;;
5912;SDS011;2982;42.684;23.356;2023-05-10T01:47:25;8.50;;;8.00;;
5912;SDS011;2982;42.684;23.356;2023-05-10T01:50:01;6.75;;;6.35;;
5912;SDS011;2982;42.684;23.356;2023-05-10T01:52:32;7.07;;;6.63;;
5912;SDS011;2982;42.684;23.356;2023-05-10T01:55:02;7.50;;;6.80;;
5912;SDS011;2982;42.684;23.356;2023-05-10T01:57:32;6.85;;;6.35;;
5912;SDS011;2982;42.684;23.356;2023-05-10T01:59:59;6.45;;;5.95;;
5912;SDS011;2982;42.684;23.356;2023-05-10T02:02:27;6.88;;;6.47;;
5912;SDS011;2982;42.684;23.356;2023-05-10T02:04:54;6.53;;;6.13;;
5912;SDS011;2982;42.684;23.356;2023-05-10T02:07:21;7.40;;;6.72;;
5912;SDS011;2982;42.684;23.356;2023-05-10T02:09:48;6.38;;;5.97;;
5912;SDS011;2982;42.684;23.356;2023-05-10T02:12:15;6.55;;;6.15;;
5912;SDS011;2982;42.684;23.356;2023-05-10T02:14:42;6.50;;;6.10;;
5912;SDS011;2982;42.684;23.356;2023-05-10T02:17:10;6.63;;;6.15;;
5912;SDS011;2982;42.684;23.356;2023-05-10T02:19:38;6.60;;;6.20;;
5912;SDS011;2982;42.684;23.356;2023-05-10T02:22:06;7.17;;;6.70;;
5912;SDS011;2982;42.684;23.356;2023-05-10T02:24:33;7.03;;;6.40;;
5912;SDS011;2982;42.684;23.356;2023-05-10T02:27:02;5.85;;;5.35;;
5912;SDS011;2982;42.684;23.356;2023-05-10T02:29:28;6.33;;;5.73;;
5912;SDS011;2982;42.684;23.356;2023-05-10T02:31:56;6.80;;;6.07;;
5912;SDS011;2982;42.684;23.356;2023-05-10T02:34:22;7.20;;;6.47;;
5912;SDS011;2982;42.684;23.356;2023-05-10T02:36:50;6.90;;;6.30;;
5912;SDS011;2982;42.684;23.356;2023-05-10T02:39:17;5.65;;;5.35;;
5912;SDS011;2982;42.684;23.356;2023-05-10T02:41:44;6.30;;;5.90;;
5912;SDS011;2982;42.684;23.356;2023-05-10T02:44:11;5.27;;;4.97;;
5912;SDS011;2982;42.684;23.356;2023-05-10T02:46:40;5.73;;;5.33;;
5912;SDS011;2982;42.684;23.356;2023-05-10T02:49:05;6.10;;;5.57;;
5912;SDS011;2982;42.684;23.356;2023-05-10T02:51:31;5.07;;;4.67;;
5912;SDS011;2982;42.684;23.356;2023-05-10T02:54:10;5.83;;;5.33;;
5912;SDS011;2982;42.684;23.356;2023-05-10T02:56:40;5.97;;;5.57;;
5912;SDS011;2982;42.684;23.356;2023-05-10T02:59:11;5.13;;;4.83;;
5912;SDS011;2982;42.684;23.356;2023-05-10T03:01:36;5.80;;;5.30;;
5912;SDS011;2982;42.684;23.356;2023-05-10T03:04:01;5.60;;;5.20;;
5912;SDS011;2982;42.684;23.356;2023-05-10T03:06:26;5.73;;;5.33;;
5912;SDS011;2982;42.684;23.356;2023-05-10T03:08:52;5.50;;;5.10;;
5912;SDS011;2982;42.684;23.356;2023-05-10T03:16:45;5.10;;;4.73;;
5912;SDS011;2982;42.684;23.356;2023-05-10T03:21:49;5.90;;;5.50;;
5912;SDS011;2982;42.684;23.356;2023-05-10T03:24:18;4.97;;;4.67;;
5912;SDS011;2982;42.684;23.356;2023-05-10T03:26:46;4.47;;;4.07;;
5912;SDS011;2982;42.684;23.356;2023-05-10T03:29:13;5.50;;;5.03;;
5912;SDS011;2982;42.684;23.356;2023-05-10T03:31:39;5.27;;;4.87;;
5912;SDS011;2982;42.684;23.356;2023-05-10T03:34:05;4.50;;;4.20;;
5912;SDS011;2982;42.684;23.356;2023-05-10T03:36:30;6.13;;;4.93;;
5912;SDS011;2982;42.684;23.356;2023-05-10T05:09:46;6.80;;;6.20;;
5912;SDS011;2982;42.684;23.356;2023-05-10T05:12:12;5.67;;;5.27;;
5912;SDS011;2982;42.684;23.356;2023-05-10T05:14:37;8.73;;;6.70;;
5912;SDS011;2982;42.684;23.356;2023-05-10T05:17:02;8.75;;;7.95;;
5912;SDS011;2982;42.684;23.356;2023-05-10T05:19:27;8.13;;;7.50;;
5912;SDS011;2982;42.684;23.356;2023-05-10T05:21:53;8.27;;;6.57;;
5912;SDS011;2982;42.684;23.356;2023-05-10T05:24:18;6.93;;;6.32;;
5912;SDS011;2982;42.684;23.356;2023-05-10T05:26:43;6.82;;;6.15;;
5912;SDS011;2982;42.684;23.356;2023-05-10T05:29:08;7.53;;;6.68;;
5912;SDS011;2982;42.684;23.356;2023-05-10T05:31:34;7.28;;;5.47;;
5912;SDS011;2982;42.684;23.356;2023-05-10T05:33:59;7.68;;;6.35;;
5912;SDS011;2982;42.684;23.356;2023-05-10T05:36:24;8.03;;;7.43;;
5912;SDS011;2982;42.684;23.356;2023-05-10T05:38:49;7.73;;;6.90;;
5912;SDS011;2982;42.684;23.356;2023-05-10T05:41:15;6.57;;;5.97;;
5912;SDS011;2982;42.684;23.356;2023-05-10T05:43:40;7.30;;;6.60;;
5912;SDS011;2982;42.684;23.356;2023-05-10T05:46:05;7.77;;;6.37;;
5912;SDS011;2982;42.684;23.356;2023-05-10T05:48:31;7.30;;;6.77;;
5912;SDS011;2982;42.684;23.356;2023-05-10T05:50:56;6.15;;;5.30;;
5912;SDS011;2982;42.684;23.356;2023-05-10T05:53:22;6.83;;;6.30;;
5912;SDS011;2982;42.684;23.356;2023-05-10T05:55:54;8.33;;;5.77;;
5912;SDS011;2982;42.684;23.356;2023-05-10T05:58:21;6.80;;;6.20;;
5912;SDS011;2982;42.684;23.356;2023-05-10T06:00:46;7.00;;;6.33;;
5912;SDS011;2982;42.684;23.356;2023-05-10T06:03:12;7.87;;;6.23;;
5912;SDS011;2982;42.684;23.356;2023-05-10T06:05:37;6.00;;;5.40;;
5912;SDS011;2982;42.684;23.356;2023-05-10T06:08:02;9.53;;;8.47;;
5912;SDS011;2982;42.684;23.356;2023-05-10T06:10:28;7.77;;;7.07;;
5912;SDS011;2982;42.684;23.356;2023-05-10T06:12:53;8.03;;;7.43;;
5912;SDS011;2982;42.684;23.356;2023-05-10T06:15:18;8.80;;;7.43;;
5912;SDS011;2982;42.684;23.356;2023-05-10T06:17:44;7.68;;;6.75;;
5912;SDS011;2982;42.684;23.356;2023-05-10T06:20:09;7.10;;;6.43;;
5912;SDS011;2982;42.684;23.356;2023-05-10T06:22:35;5.85;;;5.35;;
5912;SDS011;2982;42.684;23.356;2023-05-10T06:25:00;5.90;;;5.13;;
5912;SDS011;2982;42.684;23.356;2023-05-10T06:27:25;4.45;;;3.90;;
5912;SDS011;2982;42.684;23.356;2023-05-10T06:29:51;5.47;;;5.07;;
5912;SDS011;2982;42.684;23.356;2023-05-10T06:32:16;5.60;;;5.20;;
5912;SDS011;2982;42.684;23.356;2023-05-10T06:34:41;7.47;;;5.33;;
5912;SDS011;2982;42.684;23.356;2023-05-10T06:37:06;6.03;;;5.35;;
5912;SDS011;2982;42.684;23.356;2023-05-10T06:39:32;7.17;;;5.60;;
5912;SDS011;2982;42.684;23.356;2023-05-10T06:41:57;6.80;;;6.20;;
5912;SDS011;2982;42.684;23.356;2023-05-10T06:44:22;5.83;;;5.43;;
5912;SDS011;2982;42.684;23.356;2023-05-10T06:46:47;5.40;;;5.00;;
5912;SDS011;2982;42.684;23.356;2023-05-10T06:49:12;5.63;;;5.22;;
5912;SDS011;2982;42.684;23.356;2023-05-10T06:51:38;6.00;;;5.50;;
5912;SDS011;2982;42.684;23.356;2023-05-10T06:54:03;8.23;;;4.87;;
5912;SDS011;2982;42.684;23.356;2023-05-10T06:56:28;5.80;;;5.23;;
5912;SDS011;2982;42.684;23.356;2023-05-10T06:58:54;5.13;;;4.80;;
5912;SDS011;2982;42.684;23.356;2023-05-10T07:01:19;5.23;;;4.77;;
5912;SDS011;2982;42.684;23.356;2023-05-10T07:03:44;5.82;;;5.32;;
5912;SDS011;2982;42.684;23.356;2023-05-10T07:06:09;5.88;;;5.40;;
5912;SDS011;2982;42.684;23.356;2023-05-10T07:08:35;7.97;;;6.22;;
5912;SDS011;2982;42.684;23.356;2023-05-10T07:11:01;6.93;;;6.30;;
5912;SDS011;2982;42.684;23.356;2023-05-10T07:13:27;5.97;;;5.38;;
5912;SDS011;2982;42.684;23.356;2023-05-10T07:15:52;6.10;;;5.13;;
5912;SDS011;2982;42.684;23.356;2023-05-10T07:18:17;4.35;;;4.05;;
5912;SDS011;2982;42.684;23.356;2023-05-10T07:20:43;6.45;;;4.65;;
5912;SDS011;2982;42.684;23.356;2023-05-10T07:23:08;6.30;;;4.93;;
5912;SDS011;2982;42.684;23.356;2023-05-10T07:25:33;5.03;;;4.57;;
5912;SDS011;2982;42.684;23.356;2023-05-10T07:27:58;5.47;;;5.00;;
5912;SDS011;2982;42.684;23.356;2023-05-10T07:30:24;5.57;;;4.55;;
5912;SDS011;2982;42.684;23.356;2023-05-10T07:32:49;10.40;;;5.53;;
5912;SDS011;2982;42.684;23.356;2023-05-10T07:35:14;5.85;;;5.22;;
5912;SDS011;2982;42.684;23.356;2023-05-10T07:37:40;6.32;;;5.85;;
5912;SDS011;2982;42.684;23.356;2023-05-10T07:40:05;7.15;;;5.72;;
5912;SDS011;2982;42.684;23.356;2023-05-10T07:42:31;6.32;;;5.68;;
5912;SDS011;2982;42.684;23.356;2023-05-10T07:44:56;8.70;;;5.63;;
5912;SDS011;2982;42.684;23.356;2023-05-10T07:47:21;9.65;;;8.70;;
5912;SDS011;2982;42.684;23.356;2023-05-10T07:49:47;9.80;;;6.35;;
5912;SDS011;2982;42.684;23.356;2023-05-10T07:52:12;6.38;;;5.88;;
5912;SDS011;2982;42.684;23.356;2023-05-10T07:54:37;11.05;;;9.95;;
5912;SDS011;2982;42.684;23.356;2023-05-10T07:57:03;6.32;;;5.93;;
5912;SDS011;2982;42.684;23.356;2023-05-10T07:59:28;9.00;;;8.15;;
5912;SDS011;2982;42.684;23.356;2023-05-10T08:01:53;8.95;;;7.88;;
5912;SDS011;2982;42.684;23.356;2023-05-10T08:04:18;7.82;;;6.00;;
5912;SDS011;2982;42.684;23.356;2023-05-10T08:06:44;6.43;;;5.93;;
5912;SDS011;2982;42.684;23.356;2023-05-10T08:09:09;7.28;;;6.68;;
5912;SDS011;2982;42.684;23.356;2023-05-10T08:11:34;7.30;;;6.53;;
5912;SDS011;2982;42.684;23.356;2023-05-10T08:13:59;6.43;;;5.90;;
5912;SDS011;2982;42.684;23.356;2023-05-10T08:16:25;8.05;;;6.72;;
5912;SDS011;2982;42.684;23.356;2023-05-10T08:18:50;6.65;;;6.25;;
5912;SDS011;2982;42.684;23.356;2023-05-10T08:21:15;5.97;;;5.57;;
5912;SDS011;2982;42.684;23.356;2023-05-10T08:23:41;9.07;;;6.30;;
5912;SDS011;2982;42.684;23.356;2023-05-10T08:26:06;5.32;;;4.90;;
5912;SDS011;2982;42.684;23.356;2023-05-10T08:28:31;5.82;;;5.40;;
5912;SDS011;2982;42.684;23.356;2023-05-10T08:30:57;10.27;;;6.03;;
5912;SDS011;2982;42.684;23.356;2023-05-10T08:33:22;5.97;;;5.50;;
5912;SDS011;2982;42.684;23.356;2023-05-10T08:35:47;6.45;;;5.88;;
5912;SDS011;2982;42.684;23.356;2023-05-10T08:38:13;6.55;;;6.05;;
5912;SDS011;2982;42.684;23.356;2023-05-10T08:40:39;6.90;;;6.40;;
5912;SDS011;2982;42.684;23.356;2023-05-10T08:43:08;7.35;;;6.60;;
5912;SDS011;2982;42.684;23.356;2023-05-10T08:45:39;7.57;;;6.88;;
5912;SDS011;2982;42.684;23.356;2023-05-10T08:48:09;6.80;;;6.20;;
5912;SDS011;2982;42.684;23.356;2023-05-10T08:50:36;6.47;;;5.97;;
5912;SDS011;2982;42.684;23.356;2023-05-10T08:53:03;5.18;;;4.82;;
5912;SDS011;2982;42.684;23.356;2023-05-10T08:55:31;6.50;;;6.00;;
5912;SDS011;2982;42.684;23.356;2023-05-10T08:57:57;6.63;;;6.03;;
5912;SDS011;2982;42.684;23.356;2023-05-10T09:00:23;8.18;;;6.35;;
5912;SDS011;2982;42.684;23.356;2023-05-10T09:02:49;8.18;;;7.22;;
5912;SDS011;2982;42.684;23.356;2023-05-10T09:05:15;6.57;;;5.95;;
5912;SDS011;2982;42.684;23.356;2023-05-10T09:07:40;5.97;;;5.57;;
5912;SDS011;2982;42.684;23.356;2023-05-10T09:10:05;6.40;;;5.82;;
5912;SDS011;2982;42.684;23.356;2023-05-10T09:12:31;7.43;;;6.82;;
5912;SDS011;2982;42.684;23.356;2023-05-10T09:14:57;8.18;;;7.47;;
5912;SDS011;2982;42.684;23.356;2023-05-10T09:17:25;7.57;;;6.97;;
5912;SDS011;2982;42.684;23.356;2023-05-10T09:19:58;9.98;;;7.63;;
5912;SDS011;2982;42.684;23.356;2023-05-10T09:22:24;10.60;;;8.35;;
5912;SDS011;2982;42.684;23.356;2023-05-10T09:25:09;10.90;;;8.10;;
5912;SDS011;2982;42.684;23.356;2023-05-10T09:27:36;7.75;;;6.90;;
5912;SDS011;2982;42.684;23.356;2023-05-10T09:30:03;10.30;;;9.35;;
5912;SDS011;2982;42.684;23.356;2023-05-10T09:32:36;24.52;;;14.20;;
5912;SDS011;2982;42.684;23.356;2023-05-10T09:35:11;11.43;;;8.40;;
5912;SDS011;2982;42.684;23.356;2023-05-10T09:37:44;10.02;;;9.05;;
5912;SDS011;2982;42.684;23.356;2023-05-10T09:40:11;9.80;;;9.05;;
5912;SDS011;2982;42.684;23.356;2023-05-10T09:42:42;9.43;;;8.63;;
5912;SDS011;2982;42.684;23.356;2023-05-10T09:45:15;6.88;;;6.28;;
5912;SDS011;2982;42.684;23.356;2023-05-10T09:47:40;7.68;;;7.07;;
5912;SDS011;2982;42.684;23.356;2023-05-10T09:50:05;7.57;;;6.97;;
5912;SDS011;2982;42.684;23.356;2023-05-10T09:52:45;7.03;;;6.43;;
5912;SDS011;2982;42.684;23.356;2023-05-10T09:55:13;6.57;;;6.18;;
5912;SDS011;2982;42.684;23.356;2023-05-10T09:57:39;6.18;;;5.72;;
5912;SDS011;2982;42.684;23.356;2023-05-10T10:00:04;8.05;;;6.20;;
5912;SDS011;2982;42.684;23.356;2023-05-10T10:02:31;7.45;;;6.93;;
5912;SDS011;2982;42.684;23.356;2023-05-10T10:04:56;6.75;;;6.25;;
5912;SDS011;2982;42.684;23.356;2023-05-10T10:07:22;6.28;;;5.78;;
5912;SDS011;2982;42.684;23.356;2023-05-10T10:09:49;6.95;;;6.35;;
5912;SDS011;2982;42.684;23.356;2023-05-10T10:12:14;6.60;;;6.03;;
5912;SDS011;2982;42.684;23.356;2023-05-10T10:14:40;5.30;;;4.95;;
5912;SDS011;2982;42.684;23.356;2023-05-10T10:17:05;6.78;;;4.93;;
5912;SDS011;2982;42.684;23.356;2023-05-10T10:19:32;6.05;;;5.57;;
5912;SDS011;2982;42.684;23.356;2023-05-10T10:21:58;6.68;;;5.68;;
5912;SDS011;2982;42.684;23.356;2023-05-10T10:24:25;4.68;;;4.28;;
5912;SDS011;2982;42.684;23.356;2023-05-10T10:26:50;4.78;;;4.32;;
5912;SDS011;2982;42.684;23.356;2023-05-10T10:29:24;5.22;;;4.93;;
5912;SDS011;2982;42.684;23.356;2023-05-10T10:32:02;6.47;;;5.97;;
5912;SDS011;2982;42.684;23.356;2023-05-10T10:34:34;6.13;;;5.05;;
5912;SDS011;2982;42.684;23.356;2023-05-10T10:37:03;8.10;;;5.63;;
5912;SDS011;2982;42.684;23.356;2023-05-10T10:39:30;5.65;;;4.22;;
5912;SDS011;2982;42.684;23.356;2023-05-10T10:41:56;8.50;;;4.68;;
5912;SDS011;2982;42.684;23.356;2023-05-10T10:49:37;5.53;;;5.03;;
5912;SDS011;2982;42.684;23.356;2023-05-10T10:57:55;5.22;;;4.93;;
5912;SDS011;2982;42.684;23.356;2023-05-10T11:05:34;5.93;;;5.15;;
5912;SDS011;2982;42.684;23.356;2023-05-10T11:08:09;5.75;;;5.13;;
5912;SDS011;2982;42.684;23.356;2023-05-10T11:10:39;5.82;;;5.13;;
5912;SDS011;2982;42.684;23.356;2023-05-10T11:13:06;8.90;;;4.90;;
5912;SDS011;2982;42.684;23.356;2023-05-10T11:15:37;5.07;;;4.70;;
5912;SDS011;2982;42.684;23.356;2023-05-10T11:18:19;5.30;;;4.93;;
5912;SDS011;2982;42.684;23.356;2023-05-10T11:20:51;8.40;;;5.45;;
5912;SDS011;2982;42.684;23.356;2023-05-10T11:23:17;5.07;;;4.78;;
5912;SDS011;2982;42.684;23.356;2023-05-10T11:25:43;5.97;;;5.07;;
5912;SDS011;2982;42.684;23.356;2023-05-10T11:28:10;4.82;;;4.05;;
5912;SDS011;2982;42.684;23.356;2023-05-10T11:30:37;7.43;;;5.03;;
5912;SDS011;2982;42.684;23.356;2023-05-10T11:33:03;5.05;;;4.75;;
5912;SDS011;2982;42.684;23.356;2023-05-10T11:35:30;9.20;;;4.97;;
5912;SDS011;2982;42.684;23.356;2023-05-10T11:37:55;10.15;;;5.65;;
5912;SDS011;2982;42.684;23.356;2023-05-10T11:40:23;5.15;;;4.75;;
5912;SDS011;2982;42.684;23.356;2023-05-10T11:42:48;5.47;;;5.07;;
5912;SDS011;2982;42.684;23.356;2023-05-10T11:45:14;4.75;;;4.47;;
5912;SDS011;2982;42.684;23.356;2023-05-10T11:47:39;5.45;;;4.70;;
5912;SDS011;2982;42.684;23.356;2023-05-10T11:50:04;7.22;;;4.82;;
5912;SDS011;2982;42.684;23.356;2023-05-10T11:52:35;4.95;;;4.55;;
5912;SDS011;2982;42.684;23.356;2023-05-10T11:55:00;9.48;;;5.20;;
5912;SDS011;2982;42.684;23.356;2023-05-10T11:57:26;5.25;;;4.70;;
5912;SDS011;2982;42.684;23.356;2023-05-10T11:59:58;5.47;;;5.18;;
5912;SDS011;2982;42.684;23.356;2023-05-10T12:02:23;4.53;;;4.20;;
5912;SDS011;2982;42.684;23.356;2023-05-10T12:04:49;7.85;;;7.15;;
5912;SDS011;2982;42.684;23.356;2023-05-10T12:07:16;9.07;;;5.53;;
5912;SDS011;2982;42.684;23.356;2023-05-10T12:10:01;11.63;;;10.30;;
5912;SDS011;2982;42.684;23.356;2023-05-10T12:12:41;8.40;;;5.93;;
5912;SDS011;2982;42.684;23.356;2023-05-10T12:15:17;5.40;;;5.00;;
5912;SDS011;2982;42.684;23.356;2023-05-10T12:17:47;5.63;;;5.07;;
5912;SDS011;2982;42.684;23.356;2023-05-10T12:20:17;7.88;;;5.88;;
5912;SDS011;2982;42.684;23.356;2023-05-10T12:22:49;6.55;;;5.82;;
5912;SDS011;2982;42.684;23.356;2023-05-10T12:25:18;5.93;;;5.45;;
5912;SDS011;2982;42.684;23.356;2023-05-10T12:27:52;5.22;;;4.70;;
5912;SDS011;2982;42.684;23.356;2023-05-10T12:30:22;7.43;;;5.78;;
5912;SDS011;2982;42.684;23.356;2023-05-10T12:32:52;5.45;;;5.05;;
5912;SDS011;2982;42.684;23.356;2023-05-10T12:35:18;8.18;;;5.93;;
5912;SDS011;2982;42.684;23.356;2023-05-10T12:37:43;6.63;;;5.32;;
5912;SDS011;2982;42.684;23.356;2023-05-10T12:40:09;9.90;;;6.05;;
5912;SDS011;2982;42.684;23.356;2023-05-10T12:42:35;7.20;;;6.15;;
5912;SDS011;2982;42.684;23.356;2023-05-10T12:45:01;8.98;;;5.93;;
5912;SDS011;2982;42.684;23.356;2023-05-10T12:47:27;7.05;;;6.35;;
5912;SDS011;2982;42.684;23.356;2023-05-10T12:49:53;6.28;;;5.72;;
5912;SDS011;2982;42.684;23.356;2023-05-10T12:52:18;6.07;;;5.68;;
5912;SDS011;2982;42.684;23.356;2023-05-10T12:54:43;6.60;;;5.70;;
5912;SDS011;2982;42.684;23.356;2023-05-10T12:57:09;6.30;;;5.70;;
5912;SDS011;2982;42.684;23.356;2023-05-10T12:59:34;5.38;;;4.97;;
5912;SDS011;2982;42.684;23.356;2023-05-10T13:01:59;8.35;;;5.25;;
5912;SDS011;2982;42.684;23.356;2023-05-10T13:04:24;12.43;;;5.55;;
5912;SDS011;2982;42.684;23.356;2023-05-10T13:06:50;6.57;;;5.43;;
5912;SDS011;2982;42.684;23.356;2023-05-10T13:09:15;6.75;;;6.15;;
5912;SDS011;2982;42.684;23.356;2023-05-10T13:11:40;5.80;;;5.35;;
5912;SDS011;2982;42.684;23.356;2023-05-10T13:14:06;6.47;;;5.85;;
5912;SDS011;2982;42.684;23.356;2023-05-10T13:16:31;10.23;;;5.10;;
5912;SDS011;2982;42.684;23.356;2023-05-10T13:18:56;7.63;;;5.18;;
5912;SDS011;2982;42.684;23.356;2023-05-10T13:21:22;5.85;;;5.45;;
5912;SDS011;2982;42.684;23.356;2023-05-10T13:23:47;5.82;;;4.57;;
5912;SDS011;2982;42.684;23.356;2023-05-10T13:26:12;6.20;;;5.07;;
5912;SDS011;2982;42.684;23.356;2023-05-10T13:28:37;6.10;;;5.55;;
5912;SDS011;2982;42.684;23.356;2023-05-10T13:31:03;4.93;;;4.35;;
5912;SDS011;2982;42.684;23.356;2023-05-10T13:33:28;6.82;;;5.32;;
5912;SDS011;2982;42.684;23.356;2023-05-10T13:35:53;6.85;;;5.60;;
5912;SDS011;2982;42.684;23.356;2023-05-10T13:38:18;5.13;;;4.72;;
5912;SDS011;2982;42.684;23.356;2023-05-10T13:40:44;8.05;;;5.50;;
5912;SDS011;2982;42.684;23.356;2023-05-10T13:43:09;7.93;;;5.72;;
5912;SDS011;2982;42.684;23.356;2023-05-10T13:45:34;7.47;;;5.72;;
5912;SDS011;2982;42.684;23.356;2023-05-10T13:47:59;5.55;;;4.90;;
5912;SDS011;2982;42.684;23.356;2023-05-10T13:50:25;5.65;;;4.93;;
5912;SDS011;2982;42.684;23.356;2023-05-10T13:52:50;5.93;;;4.95;;
5912;SDS011;2982;42.684;23.356;2023-05-10T13:58:18;6.07;;;5.43;;
5912;SDS011;2982;42.684;23.356;2023-05-10T14:00:43;5.28;;;4.88;;
5912;SDS011;2982;42.684;23.356;2023-05-10T14:03:09;5.72;;;4.90;;
5912;SDS011;2982;42.684;23.356;2023-05-10T14:05:34;6.90;;;5.72;;
5912;SDS011;2982;42.684;23.356;2023-05-10T14:07:59;6.03;;;5.35;;
5912;SDS011;2982;42.684;23.356;2023-05-10T14:10:25;5.18;;;4.82;;
5912;SDS011;2982;42.684;23.356;2023-05-10T14:12:50;7.75;;;5.70;;
5912;SDS011;2982;42.684;23.356;2023-05-10T14:15:15;5.88;;;4.90;;
5912;SDS011;2982;42.684;23.356;2023-05-10T14:17:41;5.72;;;4.97;;
5912;SDS011;2982;42.684;23.356;2023-05-10T14:20:06;8.25;;;5.13;;
5912;SDS011;2982;42.684;23.356;2023-05-10T14:22:32;5.32;;;4.90;;
5912;SDS011;2982;42.684;23.356;2023-05-10T14:24:58;9.68;;;5.53;;
5912;SDS011;2982;42.684;23.356;2023-05-10T14:27:23;6.15;;;4.93;;
5912;SDS011;2982;42.684;23.356;2023-05-10T14:29:48;5.57;;;5.07;;
5912;SDS011;2982;42.684;23.356;2023-05-10T14:32:13;6.80;;;4.93;;
5912;SDS011;2982;42.684;23.356;2023-05-10T14:34:39;6.05;;;5.60;;
5912;SDS011;2982;42.684;23.356;2023-05-10T14:37:04;6.50;;;5.50;;
5912;SDS011;2982;42.684;23.356;2023-05-10T14:39:29;5.90;;;5.40;;
5912;SDS011;2982;42.684;23.356;2023-05-10T14:41:55;6.25;;;5.65;;
5912;SDS011;2982;42.684;23.356;2023-05-10T14:44:20;6.20;;;5.68;;
5912;SDS011;2982;42.684;23.356;2023-05-10T14:46:46;8.80;;;6.68;;
5912;SDS011;2982;42.684;23.356;2023-05-10T14:49:11;7.38;;;6.68;;
5912;SDS011;2982;42.684;23.356;2023-05-10T14:51:36;6.60;;;6.07;;
5912;SDS011;2982;42.684;23.356;2023-05-10T14:54:01;8.18;;;6.95;;
5912;SDS011;2982;42.684;23.356;2023-05-10T14:56:27;7.13;;;5.43;;
5912;SDS011;2982;42.684;23.356;2023-05-10T14:58:52;5.75;;;5.30;;
5912;SDS011;2982;42.684;23.356;2023-05-10T15:01:17;8.10;;;5.70;;
5912;SDS011;2982;42.684;23.356;2023-05-10T15:03:42;4.68;;;4.38;;
5912;SDS011;2982;42.684;23.356;2023-05-10T15:06:08;6.22;;;5.25;;
5912;SDS011;2982;42.684;23.356;2023-05-10T15:08:33;6.68;;;5.25;;
5912;SDS011;2982;42.684;23.356;2023-05-10T15:10:59;5.78;;;5.25;;
5912;SDS011;2982;42.684;23.356;2023-05-10T15:13:24;6.18;;;5.60;;
5912;SDS011;2982;42.684;23.356;2023-05-10T15:15:50;7.43;;;5.88;;
5912;SDS011;2982;42.684;23.356;2023-05-10T15:18:15;8.10;;;5.47;;
5912;SDS011;2982;42.684;23.356;2023-05-10T15:20:40;5.60;;;5.20;;
5912;SDS011;2982;42.684;23.356;2023-05-10T15:23:06;6.15;;;5.30;;
5912;SDS011;2982;42.684;23.356;2023-05-10T15:25:31;6.25;;;5.35;;
5912;SDS011;2982;42.684;23.356;2023-05-10T15:27:56;5.65;;;5.00;;
5912;SDS011;2982;42.684;23.356;2023-05-10T15:30:21;6.40;;;5.80;;
5912;SDS011;2982;42.684;23.356;2023-05-10T15:32:47;7.32;;;5.53;;
5912;SDS011;2982;42.684;23.356;2023-05-10T15:35:12;5.50;;;5.00;;
5912;SDS011;2982;42.684;23.356;2023-05-10T15:37:38;11.18;;;5.10;;
5912;SDS011;2982;42.684;23.356;2023-05-10T15:40:03;11.88;;;6.05;;
5912;SDS011;2982;42.684;23.356;2023-05-10T15:42:29;7.70;;;5.57;;
5912;SDS011;2982;42.684;23.356;2023-05-10T15:44:55;5.43;;;4.97;;
5912;SDS011;2982;42.684;23.356;2023-05-10T15:47:21;4.80;;;4.35;;
5912;SDS011;2982;42.684;23.356;2023-05-10T15:49:46;6.32;;;4.68;;
5912;SDS011;2982;42.684;23.356;2023-05-10T15:52:12;5.28;;;4.68;;
5912;SDS011;2982;42.684;23.356;2023-05-10T15:54:37;5.55;;;4.82;;
5912;SDS011;2982;42.684;23.356;2023-05-10T15:57:02;12.90;;;5.93;;
5912;SDS011;2982;42.684;23.356;2023-05-10T15:59:27;5.50;;;5.05;;
5912;SDS011;2982;42.684;23.356;2023-05-10T16:01:53;9.13;;;5.53;;
5912;SDS011;2982;42.684;23.356;2023-05-10T16:04:18;5.68;;;5.28;;
5912;SDS011;2982;42.684;23.356;2023-05-10T16:06:43;8.50;;;6.15;;
5912;SDS011;2982;42.684;23.356;2023-05-10T16:09:09;5.32;;;4.82;;
5912;SDS011;2982;42.684;23.356;2023-05-10T16:11:34;7.18;;;5.90;;
5912;SDS011;2982;42.684;23.356;2023-05-10T16:13:59;6.82;;;6.03;;
5912;SDS011;2982;42.684;23.356;2023-05-10T16:16:24;6.45;;;5.90;;
5912;SDS011;2982;42.684;23.356;2023-05-10T16:18:50;8.60;;;4.95;;
5912;SDS011;2982;42.684;23.356;2023-05-10T16:21:16;11.90;;;5.85;;
5912;SDS011;2982;42.684;23.356;2023-05-10T16:23:41;6.38;;;5.95;;
5912;SDS011;2982;42.684;23.356;2023-05-10T16:26:08;6.85;;;6.15;;
5912;SDS011;2982;42.684;23.356;2023-05-10T16:28:33;6.57;;;6.07;;
5912;SDS011;2982;42.684;23.356;2023-05-10T16:30:58;6.80;;;5.65;;
5912;SDS011;2982;42.684;23.356;2023-05-10T16:33:24;5.53;;;5.00;;
5912;SDS011;2982;42.684;23.356;2023-05-10T16:35:49;6.95;;;6.25;;
5912;SDS011;2982;42.684;23.356;2023-05-10T16:38:14;6.25;;;5.75;;
5912;SDS011;2982;42.684;23.356;2023-05-10T16:40:40;6.47;;;5.97;;
5912;SDS011;2982;42.684;23.356;2023-05-10T16:43:05;6.65;;;6.13;;
5912;SDS011;2982;42.684;23.356;2023-05-10T16:45:30;9.15;;;6.53;;
5912;SDS011;2982;42.684;23.356;2023-05-10T16:47:56;6.30;;;5.90;;
5912;SDS011;2982;42.684;23.356;2023-05-10T16:50:21;6.90;;;6.30;;
5912;SDS011;2982;42.684;23.356;2023-05-10T16:52:46;6.75;;;6.15;;
5912;SDS011;2982;42.684;23.356;2023-05-10T16:55:12;6.95;;;6.28;;
5912;SDS011;2982;42.684;23.356;2023-05-10T16:57:37;6.85;;;6.25;;
5912;SDS011;2982;42.684;23.356;2023-05-10T17:00:03;6.57;;;6.00;;
5912;SDS011;2982;42.684;23.356;2023-05-10T17:02:28;6.80;;;5.75;;
5912;SDS011;2982;42.684;23.356;2023-05-10T17:04:53;7.93;;;7.18;;
5912;SDS011;2982;42.684;23.356;2023-05-10T17:07:19;7.47;;;6.15;;
5912;SDS011;2982;42.684;23.356;2023-05-10T17:09:45;7.00;;;6.32;;
5912;SDS011;2982;42.684;23.356;2023-05-10T17:12:10;8.55;;;7.70;;